Time;durP1;ratioP1;P1;durP2;ratioP2;P2;SDS_P1;SDS_P2;PMS_P1;PMS_P2;Temp;Humidity;BMP_temperature;BMP_pressure;BME280_temperature;BME280_humidity;BME280_pressure;Samples;Min_cycle;Max_cycle;Signal;HPM_P1;HPM_P2
2022/01/16 00:00:21;;;;;;;;;31.25;27.50;;;;;0.77;71.51;101811.84;5073113;28;46053;-78
2022/01/16 00:05:24;;;;;;;;;47.50;32.50;;;;;0.78;71.71;101809.31;5058385;28;45324;-78
2022/01/16 00:07:50;;;;;;;;;34.75;25.00;;;;;0.75;71.10;101777.94;5076183;27;45466;-78
2022/01/16 00:10:19;;;;;;;;;38.00;33.75;;;;;0.80;71.79;101786.81;5057485;28;45385;-78
2022/01/16 00:12:52;;;;;;;;;37.50;29.50;;;;;0.85;71.54;101789.59;5057570;27;45382;-79
2022/01/16 00:15:21;;;;;;;;;40.25;30.25;;;;;0.89;71.25;101794.09;5057983;28;45463;-79
2022/01/16 00:20:20;;;;;;;;;30.00;24.00;;;;;0.86;71.16;101796.59;5074290;28;45316;-79
2022/01/16 00:22:47;;;;;;;;;30.75;24.00;;;;;0.77;71.31;101794.50;5084351;27;45384;-78
2022/01/16 00:25:13;;;;;;;;;34.50;23.50;;;;;0.74;71.91;101796.97;5077406;27;45318;-78
2022/01/16 00:27:38;;;;;;;;;24.50;21.50;;;;;0.80;71.48;101818.03;5070533;28;45254;-79
2022/01/16 00:30:05;;;;;;;;;26.50;24.00;;;;;0.84;71.96;101834.69;5077473;27;46057;-79
2022/01/16 00:32:30;;;;;;;;;47.50;36.75;;;;;0.83;71.17;101849.41;5077623;27;45475;-78
2022/01/16 00:34:55;;;;;;;;;32.75;27.25;;;;;0.84;71.77;101853.78;5077223;28;45439;-78
2022/01/16 00:37:21;;;;;;;;;42.00;32.50;;;;;0.85;71.51;101842.56;5074302;27;45426;-78
2022/01/16 00:39:46;;;;;;;;;36.50;30.50;;;;;0.86;70.61;101833.91;5076436;27;46100;-79
2022/01/16 00:42:12;;;;;;;;;38.00;27.00;;;;;0.85;70.62;101815.63;5076690;28;45511;-79
2022/01/16 00:44:37;;;;;;;;;36.00;26.25;;;;;0.83;71.16;101806.88;5077335;28;45445;-78
2022/01/16 00:47:03;;;;;;;;;38.00;24.25;;;;;0.84;70.38;101814.75;5074117;28;45501;-78
2022/01/16 00:49:31;;;;;;;;;33.50;28.25;;;;;0.84;70.42;101814.75;5077981;27;46327;-79
2022/01/16 00:51:57;;;;;;;;;31.00;25.00;;;;;0.77;70.81;101820.53;5078095;27;45418;-78
2022/01/16 00:54:23;;;;;;;;;29.25;25.75;;;;;0.78;70.50;101824.91;5079868;28;45385;-78
2022/01/16 00:56:48;;;;;;;;;24.00;18.75;;;;;0.79;70.56;101839.72;5062642;27;45524;-78
2022/01/16 00:59:13;;;;;;;;;28.00;24.25;;;;;0.78;70.54;101818.84;5057415;28;46548;-77
2022/01/16 01:01:39;;;;;;;;;23.00;17.25;;;;;0.78;70.37;101866.56;5056876;28;45461;-78
2022/01/16 01:04:04;;;;;;;;;42.50;33.00;;;;;0.79;70.19;101870.97;5055845;28;45704;-77
2022/01/16 01:06:30;;;;;;;;;37.00;32.00;;;;;0.77;70.69;101875.19;5055703;28;45471;-78
2022/01/16 01:08:55;;;;;;;;;27.25;23.25;;;;;0.76;70.24;101880.34;5059481;28;46156;-78
2022/01/16 01:11:25;;;;;;;;;39.25;33.75;;;;;0.72;70.40;101871.53;5075355;27;45473;-78
2022/01/16 01:14:13;;;;;;;;;33.75;23.75;;;;;0.74;69.80;101901.09;5076901;27;45327;-78
2022/01/16 01:16:51;;;;;;;;;32.25;22.75;;;;;0.71;70.79;101869.75;5077536;28;45362;-78
2022/01/16 01:19:18;;;;;;;;;34.50;33.00;;;;;0.70;70.38;101875.78;5078108;27;45425;-79
2022/01/16 01:21:43;;;;;;;;;28.50;28.00;;;;;0.72;70.16;101840.28;5077353;27;45371;-78
2022/01/16 01:24:08;;;;;;;;;34.25;27.75;;;;;0.69;70.39;101803.72;5083678;27;45342;-79
2022/01/16 01:26:42;;;;;;;;;41.25;27.00;;;;;0.67;70.17;101789.78;5069668;27;45460;-79
2022/01/16 01:29:07;;;;;;;;;32.25;29.50;;;;;0.70;70.94;101792.50;5077270;27;46329;-78
2022/01/16 01:31:33;;;;;;;;;28.75;24.00;;;;;0.67;70.60;101761.16;5076630;27;45385;-78
2022/01/16 01:33:59;;;;;;;;;27.25;21.50;;;;;0.67;71.07;101771.56;5077060;28;45578;-77
2022/01/16 01:36:25;;;;;;;;;39.00;31.25;;;;;0.66;70.56;101803.59;5062564;28;45560;-79
2022/01/16 01:38:50;;;;;;;;;37.00;27.25;;;;;0.66;70.29;101814.03;5055530;28;45394;-79
2022/01/16 01:41:16;;;;;;;;;37.00;32.50;;;;;0.68;70.79;101836.69;5055300;28;45339;-78
2022/01/16 01:51:42;;;;;;;;;34.00;30.25;;;;;0.63;71.23;101863.34;5056808;28;45446;-79
2022/01/16 01:54:08;;;;;;;;;33.00;24.50;;;;;0.63;71.07;101877.22;5060487;28;45426;-78
2022/01/16 01:56:37;;;;;;;;;32.25;27.50;;;;;0.65;71.09;101874.69;5057366;28;45263;-80
2022/01/16 01:59:04;;;;;;;;;24.00;19.00;;;;;0.68;71.95;101880.03;5059151;28;45910;-79
2022/01/16 02:01:30;;;;;;;;;24.50;22.00;;;;;0.67;71.01;101878.28;5076050;27;45637;-78
2022/01/16 02:03:56;;;;;;;;;33.50;28.00;;;;;0.68;70.80;101900.84;5077219;27;45503;-80
2022/01/16 02:06:25;;;;;;;;;31.00;26.00;;;;;0.70;71.88;101907.91;5069988;27;45468;-78
2022/01/16 02:08:53;;;;;;;;;38.25;33.50;;;;;0.71;71.93;101932.22;5075754;27;46198;-79
2022/01/16 02:11:23;;;;;;;;;36.75;28.25;;;;;0.70;71.86;101926.13;5074994;27;45439;-78
2022/01/16 02:35:11;;;;;;;;;39.75;31.75;;;;;0.57;73.51;101922.94;5055892;28;45354;-79
2022/01/16 02:37:37;;;;;;;;;32.25;26.50;;;;;0.56;72.90;101913.34;5056427;28;45233;-78
2022/01/16 02:40:15;;;;;;;;;31.50;25.00;;;;;0.53;73.54;101912.41;5056147;28;47098;-79
2022/01/16 02:42:47;;;;;;;;;50.00;38.00;;;;;0.53;73.18;101889.00;5057329;28;45373;-79
2022/01/16 02:45:26;;;;;;;;;44.50;31.00;;;;;0.49;73.01;101894.88;5062501;28;45313;-78
2022/01/16 02:47:52;;;;;;;;;33.50;28.00;;;;;0.44;73.42;101888.59;5079438;27;45361;-79
2022/01/16 02:50:17;;;;;;;;;26.25;21.25;;;;;0.47;73.45;101890.44;5079839;27;46312;-78
2022/01/16 02:52:43;;;;;;;;;53.25;36.50;;;;;0.42;73.76;101887.63;5080488;27;45372;-79
2022/01/16 02:55:13;;;;;;;;;43.50;36.00;;;;;0.45;73.82;101887.75;5080048;27;45418;-78
2022/01/16 02:57:38;;;;;;;;;38.00;32.00;;;;;0.48;73.49;101887.88;5065818;28;45216;-78
2022/01/16 03:00:04;;;;;;;;;38.75;29.50;;;;;0.48;73.41;101884.41;5062241;28;46038;-79
2022/01/16 03:02:31;;;;;;;;;22.25;20.75;;;;;0.49;73.58;101876.66;5075674;28;45480;-78
2022/01/16 03:04:56;;;;;;;;;28.75;26.50;;;;;0.55;73.10;101882.94;5096143;28;44745;-78
2022/01/16 03:07:22;;;;;;;;;33.75;28.75;;;;;0.51;73.50;101877.59;5080355;28;45501;-78
2022/01/16 03:10:42;;;;;;;;;48.00;35.50;;;;;0.60;73.54;101869.31;5079018;27;45382;-79
2022/01/16 03:13:07;;;;;;;;;39.75;31.00;;;;;0.61;72.81;101862.38;5077302;27;45380;-78
2022/01/16 03:15:33;;;;;;;;;35.00;30.75;;;;;0.58;73.25;101870.97;5058195;28;45527;-78
2022/01/16 03:23:17;;;;;;;;;36.50;32.25;;;;;0.40;72.90;101863.28;5058089;28;45912;-79
2022/01/16 03:25:44;;;;;;;;;55.25;39.25;;;;;0.34;73.37;101853.50;5059467;28;45516;-79
2022/01/16 03:28:09;;;;;;;;;39.50;30.50;;;;;0.33;73.74;101858.63;5063796;28;45455;-78
2022/01/16 03:30:34;;;;;;;;;39.50;32.00;;;;;0.27;74.32;101868.78;5059045;28;45611;-79
2022/01/16 03:33:00;;;;;;;;;20.50;18.50;;;;;0.27;73.84;101866.19;5075555;28;45483;-78
2022/01/16 03:35:25;;;;;;;;;25.25;19.25;;;;;0.26;74.11;101866.97;5057287;27;45474;-78
2022/01/16 03:37:51;;;;;;;;;34.75;27.00;;;;;0.25;74.28;101873.03;5057986;28;45447;-78
2022/01/16 03:40:20;;;;;;;;;30.75;26.25;;;;;0.28;74.24;101876.66;5076605;28;46062;-79
2022/01/16 03:42:45;;;;;;;;;81.67;65.67;;;;;0.27;74.36;101879.19;5060592;27;45276;-79
2022/01/16 03:45:11;;;;;;;;;32.00;25.67;;;;;0.25;74.07;101883.44;5069971;28;45467;-79
2022/01/16 03:47:36;;;;;;;;;74.50;62.50;;;;;0.27;74.52;101881.78;5071089;28;45671;-79
2022/01/16 03:50:04;;;;;;;;;60.67;54.00;;;;;0.15;74.39;101854.44;5057481;28;46195;-78
2022/01/16 03:52:29;;;;;;;;;72.33;59.33;;;;;0.14;75.18;101860.44;5058771;28;45390;-79
2022/01/16 03:54:55;;;;;;;;;77.33;64.67;;;;;0.16;75.10;101868.31;5073833;28;45417;-79
2022/01/16 03:57:20;;;;;;;;;38.67;24.33;;;;;0.17;74.97;101875.31;5079267;27;45567;-79
2022/01/16 03:59:46;;;;;;;;;33.50;24.25;;;;;0.22;74.71;101878.09;5084538;27;46242;-79
2022/01/16 04:02:11;;;;;;;;;41.75;33.75;;;;;0.23;75.12;101879.88;5080029;27;45468;-79
2022/01/16 04:04:37;;;;;;;;;33.75;28.00;;;;;0.25;75.57;101868.72;5067347;27;45358;-79
2022/01/16 04:07:03;;;;;;;;;36.50;30.50;;;;;0.15;75.25;101870.03;5058244;28;45701;-79
2022/01/16 04:09:28;;;;;;;;;34.75;20.50;;;;;0.29;75.41;101886.22;5057651;28;45574;-79
2022/01/16 04:11:57;;;;;;;;;41.50;31.50;;;;;0.24;75.33;101882.53;5057027;28;45410;-79
2022/01/16 04:17:17;;;;;;;;;42.50;32.75;;;;;0.30;75.69;101890.59;5058243;28;45509;-78
2022/01/16 04:19:44;;;;;;;;;27.75;22.25;;;;;0.31;75.18;101899.31;5060419;28;45330;-78
2022/01/16 04:22:10;;;;;;;;;47.00;29.50;;;;;0.32;75.39;101914.09;5077960;27;45510;-79
2022/01/16 04:24:36;;;;;;;;;40.00;30.25;;;;;0.29;74.91;101916.53;5068164;27;45318;-79
2022/01/16 04:27:02;;;;;;;;;36.50;31.00;;;;;0.29;75.17;101916.53;5058819;28;45505;-79
2022/01/16 04:29:28;;;;;;;;;35.75;23.50;;;;;0.29;75.11;101916.53;5075959;27;47360;-79
2022/01/16 04:31:53;;;;;;;;;39.25;31.25;;;;;0.32;75.55;101922.78;5079412;28;45413;-79
2022/01/16 04:34:18;;;;;;;;;34.50;25.50;;;;;0.31;75.50;101921.00;5069283;28;45453;-77
2022/01/16 04:36:44;;;;;;;;;42.75;36.50;;;;;0.36;75.34;101939.41;5075884;28;45691;-79
2022/01/16 04:39:15;;;;;;;;;30.50;23.00;;;;;0.36;74.91;101947.19;5076332;28;46163;-78
2022/01/16 04:44:26;;;;;;;;;41.50;33.00;;;;;0.37;75.06;101949.00;5068291;28;45583;-79
2022/01/16 04:46:53;;;;;;;;;44.75;37.75;;;;;0.40;75.55;101938.72;5056991;28;45323;-78
2022/01/16 04:49:19;;;;;;;;;41.00;32.50;;;;;0.37;75.41;101930.78;5056600;28;45475;-78
2022/01/16 04:51:44;;;;;;;;;35.00;26.50;;;;;0.38;75.67;101948.19;5056724;28;45488;-79
2022/01/16 04:54:10;;;;;;;;;37.75;28.75;;;;;0.36;75.79;101934.19;5062805;28;45411;-79
2022/01/16 04:56:36;;;;;;;;;35.25;26.75;;;;;0.34;75.69;101915.03;5077216;27;45374;-79
2022/01/16 04:59:01;;;;;;;;;32.25;26.50;;;;;0.39;75.33;101923.91;5082788;28;53479;-78
2022/01/16 05:01:27;;;;;;;;;37.25;28.00;;;;;0.45;76.00;101949.31;5062453;27;45441;-78
2022/01/16 05:03:53;;;;;;;;;48.25;33.50;;;;;0.42;75.75;101944.88;5060941;28;45315;-79
2022/01/16 05:06:18;;;;;;;;;34.50;26.00;;;;;0.43;75.86;101936.25;5078956;28;45373;-78
2022/01/16 05:08:44;;;;;;;;;32.75;25.00;;;;;0.41;75.86;101948.31;5063976;27;45322;-78
2022/01/16 05:11:11;;;;;;;;;34.50;29.25;;;;;0.40;76.31;101949.13;5055752;28;45657;-79
2022/01/16 05:18:48;;;;;;;;;37.75;24.50;;;;;0.44;76.40;101964.06;5068186;28;45705;-79
2022/01/16 05:21:13;;;;;;;;;93.00;72.33;;;;;0.44;76.93;101956.25;5076792;27;45503;-78
2022/01/16 05:23:41;;;;;;;;;41.50;30.75;;;;;0.43;77.29;101967.47;5061449;27;45379;-79
2022/01/16 05:26:07;;;;;;;;;40.25;25.25;;;;;0.44;76.85;101977.06;5056642;28;45645;-78
2022/01/16 05:28:33;;;;;;;;;29.50;23.25;;;;;0.42;76.79;101964.81;5056694;28;46115;-78
2022/01/16 05:30:58;;;;;;;;;33.75;28.25;;;;;0.42;76.97;101976.09;5063852;28;45445;-79
2022/01/16 05:33:24;;;;;;;;;38.00;27.75;;;;;0.43;76.96;101985.69;5058470;28;45316;-79
2022/01/16 05:35:49;;;;;;;;;28.25;20.75;;;;;0.43;76.93;101990.88;5056181;28;45601;-79
2022/01/16 05:38:15;;;;;;;;;33.25;27.50;;;;;0.39;77.52;101981.16;5068276;28;45523;-79
2022/01/16 05:40:41;;;;;;;;;25.25;25.00;;;;;0.48;76.73;102004.97;5076215;27;45444;-79
2022/01/16 05:43:06;;;;;;;;;28.00;22.25;;;;;0.44;77.08;102009.97;5077236;28;45509;-79
2022/01/16 05:45:32;;;;;;;;;22.25;21.25;;;;;0.43;77.38;101998.69;5070145;27;45505;-78
2022/01/16 05:47:58;;;;;;;;;23.00;17.75;;;;;0.44;77.65;101983.97;5076725;27;45392;-79
2022/01/16 05:50:24;;;;;;;;;25.25;23.25;;;;;0.45;77.56;101981.44;5076855;27;45334;-79
2022/01/16 05:52:50;;;;;;;;;38.50;30.00;;;;;0.45;76.83;101975.34;5065377;27;45430;-79
2022/01/16 05:55:17;;;;;;;;;22.00;15.50;;;;;0.46;77.70;101977.13;5056214;28;45371;-79
2022/01/16 05:57:43;;;;;;;;;25.50;21.25;;;;;0.50;77.90;101999.84;5066569;28;45354;-78
2022/01/16 06:00:10;;;;;;;;;25.75;19.25;;;;;0.51;77.32;101996.44;5076425;27;45321;-79
2022/01/16 06:02:36;;;;;;;;;27.25;21.75;;;;;0.53;77.18;101989.56;5080368;27;45400;-79
2022/01/16 06:05:03;;;;;;;;;28.50;24.00;;;;;0.38;77.29;101963.78;5081128;27;45583;-77
2022/01/16 06:07:28;;;;;;;;;25.75;15.25;;;;;0.56;77.16;101988.81;5076106;28;45514;-79
2022/01/16 06:09:55;;;;;;;;;26.00;23.33;;;;;0.55;77.49;101987.03;5075062;28;45555;-78
2022/01/16 06:12:21;;;;;;;;;26.75;19.25;;;;;0.55;77.35;101992.22;5069492;27;45425;-78
2022/01/16 06:14:46;;;;;;;;;15.00;11.50;;;;;0.47;77.51;102000.63;5056608;28;45393;-79
2022/01/16 06:17:14;;;;;;;;;20.25;14.00;;;;;0.50;77.90;102023.25;5054415;28;45985;-79
2022/01/16 06:19:39;;;;;;;;;18.50;15.00;;;;;0.50;77.79;102021.56;5061643;28;45421;-77
2022/01/16 06:22:05;;;;;;;;;18.75;14.00;;;;;0.46;78.11;102022.25;5076567;28;45413;-79
2022/01/16 06:24:30;;;;;;;;;24.00;19.25;;;;;0.50;78.39;102023.25;5074419;28;45654;-78
2022/01/16 06:26:57;;;;;;;;;20.00;13.50;;;;;0.49;78.11;102032.78;5075080;28;45434;-78
2022/01/16 06:29:23;;;;;;;;;21.75;15.25;;;;;0.49;78.85;102030.19;5074607;27;45396;-78
2022/01/16 06:31:48;;;;;;;;;24.50;20.50;;;;;0.50;78.61;102041.47;5078364;27;45400;-78
2022/01/16 06:34:14;;;;;;;;;19.00;18.00;;;;;0.48;78.92;102031.00;5059960;28;45400;-79
2022/01/16 06:36:40;;;;;;;;;23.50;17.50;;;;;0.50;79.01;102039.78;5055399;28;45371;-79
2022/01/16 06:39:09;;;;;;;;;20.50;17.00;;;;;0.53;78.71;102037.31;5055316;28;45556;-79
2022/01/16 06:41:35;;;;;;;;;15.50;15.50;;;;;0.50;79.05;102031.97;5069797;28;45556;-78
2022/01/16 06:44:01;;;;;;;;;20.50;16.50;;;;;0.50;79.27;102029.38;5075565;27;45497;-79
2022/01/16 06:46:27;;;;;;;;;21.00;15.00;;;;;0.44;79.03;102015.19;5075310;27;46043;-79
2022/01/16 06:48:53;;;;;;;;;18.00;15.25;;;;;0.43;78.83;102024.72;5070607;28;45481;-80
2022/01/16 06:51:20;;;;;;;;;21.00;12.00;;;;;0.44;79.24;102043.81;5055127;28;45504;-80
2022/01/16 06:53:50;;;;;;;;;25.75;15.75;;;;;0.45;79.80;102036.06;5055724;27;45638;-80
2022/01/16 06:56:17;;;;;;;;;18.50;13.50;;;;;0.47;78.86;102037.03;5073549;28;46077;-79
2022/01/16 06:58:43;;;;;;;;;24.50;15.00;;;;;0.47;79.72;102046.53;5078356;27;45349;-79
2022/01/16 07:01:09;;;;;;;;;18.25;15.25;;;;;0.46;78.87;102044.78;5077209;28;45443;-79
2022/01/16 07:03:35;;;;;;;;;20.00;13.00;;;;;0.44;79.28;102059.41;5062605;27;45666;-78
2022/01/16 07:06:01;;;;;;;;;17.00;12.25;;;;;0.43;79.96;102073.28;5059307;28;46645;-79
2022/01/16 07:08:28;;;;;;;;;20.00;13.50;;;;;0.40;80.07;102076.59;5053516;28;45332;-79
2022/01/16 07:10:55;;;;;;;;;23.00;15.25;;;;;0.42;79.82;102090.56;5055580;28;45429;-79
2022/01/16 07:13:21;;;;;;;;;21.75;15.00;;;;;0.43;80.25;102091.47;5054497;28;45445;-79
2022/01/16 07:15:47;;;;;;;;;16.50;16.00;;;;;0.45;80.25;102089.81;5054913;28;46166;-80
2022/01/16 07:18:13;;;;;;;;;20.25;11.50;;;;;0.49;80.43;102104.75;5054922;28;45433;-80
2022/01/16 07:20:38;;;;;;;;;16.00;15.00;;;;;0.44;79.82;102082.84;5056254;28;45516;-80
2022/01/16 07:23:04;;;;;;;;;16.00;12.25;;;;;0.42;80.26;102080.16;5054185;28;45522;-79
2022/01/16 07:25:31;;;;;;;;;17.25;15.75;;;;;0.42;80.62;102079.28;5053995;28;45456;-79
2022/01/16 07:27:56;;;;;;;;;18.00;11.00;;;;;0.43;80.92;102092.34;5056925;28;45436;-78
2022/01/16 07:30:22;;;;;;;;;22.00;15.75;;;;;0.46;80.40;102087.28;5059896;28;45393;-81
2022/01/16 07:32:47;;;;;;;;;11.00;10.00;;;;;0.47;80.51;102073.47;5070969;27;45496;-80
2022/01/16 07:35:13;;;;;;;;;14.50;13.75;;;;;0.40;80.78;102062.72;5081226;28;46243;-80
2022/01/16 07:37:38;;;;;;;;;16.00;13.25;;;;;0.40;81.05;102078.34;5077461;27;45476;-80
2022/01/16 07:40:04;;;;;;;;;20.00;12.00;;;;;0.43;81.07;102094.09;5060982;28;45829;-79
2022/01/16 07:42:31;;;;;;;;;21.00;15.75;;;;;0.40;81.26;102100.03;5070558;27;45567;-78
2022/01/16 07:44:56;;;;;;;;;13.75;11.00;;;;;0.29;81.29;102083.94;5063576;28;46263;-79
2022/01/16 07:47:22;;;;;;;;;20.75;16.00;;;;;0.47;81.52;102104.69;5066799;28;45505;-80
2022/01/16 07:49:47;;;;;;;;;22.00;16.00;;;;;0.46;81.63;102105.50;5071471;28;45664;-79
2022/01/16 07:52:12;;;;;;;;;14.50;10.50;;;;;0.49;81.79;102108.25;5065453;28;45436;-80
2022/01/16 07:54:38;;;;;;;;;11.50;9.50;;;;;0.54;81.13;102105.84;5063871;28;46023;-81
2022/01/16 07:57:04;;;;;;;;;23.00;18.75;;;;;0.57;81.47;102113.78;5076016;27;45793;-80
2022/01/16 07:59:30;;;;;;;;;24.50;17.00;;;;;0.59;81.65;102108.66;5061902;27;45780;-80
2022/01/16 08:01:55;;;;;;;;;12.50;9.00;;;;;0.58;81.34;102093.84;5073152;28;45378;-80
2022/01/16 08:04:21;;;;;;;;;17.00;15.75;;;;;0.57;81.59;102081.69;5066255;27;46213;-80
2022/01/16 08:06:46;;;;;;;;;21.50;13.75;;;;;0.62;81.82;102082.78;5066012;27;45607;-80
2022/01/16 08:09:11;;;;;;;;;18.00;13.00;;;;;0.54;81.83;102064.22;5065511;28;45430;-80
2022/01/16 08:11:37;;;;;;;;;19.00;17.00;;;;;0.69;81.20;102082.22;5063669;27;45412;-80
2022/01/16 08:14:02;;;;;;;;;20.25;15.75;;;;;0.70;81.27;102086.63;5065950;28;45282;-80
2022/01/16 08:16:28;;;;;;;;;22.50;13.00;;;;;0.76;81.28;102099.00;5065843;28;45366;-81
2022/01/16 08:18:54;;;;;;;;;25.75;17.50;;;;;0.80;81.24;102104.41;5063430;27;45266;-81
2022/01/16 08:21:19;;;;;;;;;15.00;11.75;;;;;0.83;81.81;102112.34;5063111;28;45355;-80
2022/01/16 08:23:44;;;;;;;;;15.50;13.00;;;;;0.89;81.10;102115.22;5058270;28;45350;-80
2022/01/16 08:26:10;;;;;;;;;17.50;16.50;;;;;0.91;81.26;102112.69;5071038;27;45408;-82
2022/01/16 08:28:35;;;;;;;;;25.75;15.00;;;;;0.92;81.06;102111.88;5070340;27;45526;-80
2022/01/16 08:31:02;;;;;;;;;18.00;16.50;;;;;0.94;80.48;102118.06;5066476;28;45350;-80
2022/01/16 08:33:27;;;;;;;;;14.00;12.50;;;;;0.94;80.41;102099.84;5061218;28;46366;-80
2022/01/16 08:35:52;;;;;;;;;21.50;14.50;;;;;1.03;80.48;102108.03;5074803;28;45379;-80
2022/01/16 08:38:21;;;;;;;;;19.25;12.50;;;;;1.03;80.33;102113.25;5064570;28;45534;-76
2022/01/16 08:40:48;;;;;;;;;17.00;12.25;;;;;1.06;81.00;102102.97;5072825;28;45627;-76
2022/01/16 08:43:13;;;;;;;;;19.00;15.25;;;;;1.09;80.58;102096.97;5063080;27;46608;-76
2022/01/16 08:45:40;;;;;;;;;26.00;14.50;;;;;1.16;80.81;102096.44;5078865;27;45575;-80
2022/01/16 08:48:07;;;;;;;;;17.00;13.50;;;;;1.05;80.50;102092.50;5067647;28;45511;-84
2022/01/16 08:50:34;;;;;;;;;19.50;15.00;;;;;1.15;80.31;102112.88;5059093;27;45564;-80
2022/01/16 08:53:00;;;;;;;;;10.75;8.00;;;;;1.04;80.92;102093.31;5067798;28;45508;-81
2022/01/16 08:55:26;;;;;;;;;18.75;15.25;;;;;1.16;80.10;102114.66;5065621;28;45369;-80
2022/01/16 08:57:51;;;;;;;;;10.00;8.50;;;;;1.20;80.82;102127.00;5064059;27;45310;-80
2022/01/16 09:00:18;;;;;;;;;26.00;20.50;;;;;1.28;80.24;102113.41;5071001;27;45338;-80
2022/01/16 09:02:44;;;;;;;;;18.50;12.50;;;;;1.42;80.10;102125.31;5078138;27;46076;-81
2022/01/16 09:05:10;;;;;;;;;20.75;12.50;;;;;1.45;79.47;102125.44;5084253;27;45563;-75
2022/01/16 09:07:36;;;;;;;;;16.25;13.50;;;;;1.41;79.84;102131.34;5079475;27;45388;-76
2022/01/16 09:10:02;;;;;;;;;32.50;18.75;;;;;1.33;80.14;102124.91;5080780;27;45438;-76
2022/01/16 09:12:29;;;;;;;;;21.25;15.75;;;;;1.49;79.75;102145.59;5057211;27;48135;-81
2022/01/16 09:14:55;;;;;;;;;21.25;15.75;;;;;1.47;79.85;102149.84;5064714;28;45569;-79
2022/01/16 09:17:21;;;;;;;;;23.50;15.25;;;;;1.45;79.58;102153.22;5064821;28;45485;-79
2022/01/16 09:19:47;;;;;;;;;17.00;11.25;;;;;1.40;79.52;102146.09;5067257;28;45433;-81
2022/01/16 09:22:12;;;;;;;;;14.50;11.25;;;;;1.52;79.63;102161.34;5064284;28;45440;-79
2022/01/16 09:24:37;;;;;;;;;14.00;13.00;;;;;1.54;79.45;102138.84;5071322;27;45312;-80
2022/01/16 09:27:04;;;;;;;;;12.25;12.00;;;;;1.77;78.53;102160.66;5063583;27;45386;-80
2022/01/16 09:29:30;;;;;;;;;22.25;15.50;;;;;1.84;78.68;102161.81;5068512;28;45708;-78
2022/01/16 09:31:56;;;;;;;;;16.50;11.00;;;;;1.79;77.78;102134.63;5073596;28;45501;-86
2022/01/16 09:34:21;;;;;;;;;14.50;13.00;;;;;1.99;76.62;102153.72;5069042;28;45322;-75
2022/01/16 09:36:47;;;;;;;;;15.00;13.50;;;;;2.23;76.50;102169.47;5069929;28;45397;-80
2022/01/16 09:39:12;;;;;;;;;15.25;10.50;;;;;2.63;75.73;102164.91;5063877;28;45424;-79
2022/01/16 09:45:51;;;;;;;;;28.25;22.25;;;;;3.76;72.03;102134.88;5074526;27;45760;-79
2022/01/16 09:48:17;;;;;;;;;26.25;21.75;;;;;4.63;69.73;102168.09;5066415;28;45540;-80
2022/01/16 09:50:42;;;;;;;;;19.75;19.25;;;;;4.87;68.09;102164.44;5057829;28;45358;-81
2022/01/16 09:53:08;;;;;;;;;25.00;22.00;;;;;4.79;66.98;102172.09;5052420;28;45482;-77
2022/01/16 09:55:33;;;;;;;;;20.25;20.00;;;;;4.60;66.77;102142.75;5058864;28;46134;-79
2022/01/16 09:58:00;;;;;;;;;21.00;17.25;;;;;4.49;66.89;102167.69;5058732;28;45401;-79
2022/01/16 10:00:27;;;;;;;;;13.25;10.75;;;;;4.33;67.44;102168.06;5062323;28;45403;-79
2022/01/16 10:02:53;;;;;;;;;25.75;22.00;;;;;4.27;67.47;102176.63;5071005;28;45323;-78
2022/01/16 10:05:38;;;;;;;;;19.50;15.75;;;;;4.97;66.35;102161.25;5079231;28;46311;-79
2022/01/16 10:08:11;;;;;;;;;23.50;19.00;;;;;5.83;64.61;102160.00;5078283;28;45322;-79
2022/01/16 10:10:42;;;;;;;;;18.00;15.25;;;;;6.36;61.92;102149.03;5070245;28;45345;-77
2022/01/16 10:13:33;;;;;;;;;24.00;21.25;;;;;7.14;60.06;102159.41;5080385;28;45350;-80
2022/01/16 10:15:59;;;;;;;;;24.25;19.25;;;;;7.67;58.40;102146.34;5076611;27;45469;-77
2022/01/16 10:18:36;;;;;;;;;21.25;19.00;;;;;7.55;57.73;102161.94;5052524;28;45426;-76
2022/01/16 10:21:02;;;;;;;;;23.00;20.50;;;;;7.16;57.98;102161.19;5052222;28;45281;-76
2022/01/16 10:23:28;;;;;;;;;22.50;19.00;;;;;7.12;58.32;102154.09;5050455;28;45650;-81
2022/01/16 10:25:53;;;;;;;;;19.75;17.00;;;;;7.12;58.09;102167.25;5051756;28;45544;-79
2022/01/16 10:28:24;;;;;;;;;15.00;12.00;;;;;7.51;56.81;102155.69;5050446;28;45407;-81
2022/01/16 10:30:51;;;;;;;;;21.00;16.75;;;;;7.86;57.06;102165.06;5053242;28;45424;-79
2022/01/16 10:33:20;;;;;;;;;24.50;15.50;;;;;7.86;56.93;102144.00;5065469;28;45381;-81
2022/01/16 10:35:50;;;;;;;;;21.25;19.75;;;;;8.64;55.21;102162.72;5056230;28;45482;-81
2022/01/16 10:38:30;;;;;;;;;23.00;20.00;;;;;9.06;53.12;102146.56;5046165;27;45589;-81
2022/01/16 10:40:59;;;;;;;;;18.00;15.50;;;;;9.51;52.41;102151.41;5040097;28;45342;-80
2022/01/16 10:43:38;;;;;;;;;24.00;17.50;;;;;9.97;52.03;102141.22;5049345;28;45387;-80
2022/01/16 10:46:04;;;;;;;;;16.75;16.00;;;;;10.32;51.04;102135.28;5050864;28;46237;-79
2022/01/16 10:48:32;;;;;;;;;12.00;11.75;;;;;10.34;50.05;102154.75;5051287;28;45383;-80
2022/01/16 10:50:57;;;;;;;;;22.25;17.50;;;;;10.41;49.91;102158.28;5051292;28;45528;-80
2022/01/16 10:53:25;;;;;;;;;10.50;5.50;;;;;9.86;50.46;102150.84;5053576;28;45578;-80
2022/01/16 10:56:04;;;;;;;;;24.25;22.25;;;;;9.64;51.18;102155.03;5057975;28;45376;-77
2022/01/16 10:58:38;;;;;;;;;25.75;23.00;;;;;9.49;51.36;102153.13;5054994;28;45383;-77
2022/01/16 11:01:13;;;;;;;;;17.75;17.75;;;;;8.81;52.89;102155.06;5041294;28;45387;-82
2022/01/16 11:03:46;;;;;;;;;27.75;22.25;;;;;8.35;54.73;102155.28;5031267;28;45552;-79
2022/01/16 11:06:17;;;;;;;;;22.00;21.00;;;;;8.03;55.84;102154.81;5044829;28;45544;-78
2022/01/16 11:08:57;;;;;;;;;23.75;21.00;;;;;7.80;56.82;102156.22;5041007;28;45476;-80
2022/01/16 11:11:27;;;;;;;;;24.50;17.75;;;;;7.72;56.23;102159.59;5046190;28;45390;-81
2022/01/16 11:13:55;;;;;;;;;23.50;18.00;;;;;7.57;56.52;102158.44;5039310;28;45651;-80
2022/01/16 11:16:23;;;;;;;;;25.00;20.75;;;;;7.41;57.84;102157.28;5044292;28;46618;-80
2022/01/16 11:18:51;;;;;;;;;32.00;22.00;;;;;7.14;58.63;102157.66;5046248;28;45412;-80
2022/01/16 11:21:31;;;;;;;;;25.00;19.50;;;;;6.76;59.47;102156.03;5049343;28;45474;-82
2022/01/16 11:26:27;;;;;;;;;25.50;18.75;;;;;6.33;60.98;102159.47;5052965;28;45485;-80
2022/01/16 11:28:56;;;;;;;;;24.75;21.50;;;;;6.12;61.27;102157.22;5050419;28;45406;-81
2022/01/16 11:31:22;;;;;;;;;22.25;17.50;;;;;5.93;61.78;102159.38;5050904;28;45505;-81
2022/01/16 11:33:47;;;;;;;;;24.50;19.25;;;;;5.70;62.38;102161.44;5052687;28;45595;-81
2022/01/16 11:36:17;;;;;;;;;24.25;19.00;;;;;5.56;63.23;102147.97;5041595;28;46741;-80
2022/01/16 11:38:49;;;;;;;;;31.75;24.50;;;;;5.53;64.33;102150.53;5037027;28;45470;-81
2022/01/16 11:41:25;;;;;;;;;28.50;24.00;;;;;5.44;64.58;102148.53;5029175;28;45455;-82
2022/01/16 11:43:52;;;;;;;;;27.75;23.75;;;;;5.36;64.88;102154.41;5047521;28;45505;-80
2022/01/16 11:46:24;;;;;;;;;29.00;22.75;;;;;5.30;65.29;102157.78;5048304;28;46266;-83
2022/01/16 11:49:14;;;;;;;;;24.75;20.75;;;;;5.27;65.53;102166.44;5040952;28;45660;-81
2022/01/16 11:51:48;;;;;;;;;26.50;22.00;;;;;5.22;65.91;102164.53;5046402;28;45562;-80
2022/01/16 11:54:26;;;;;;;;;23.25;21.00;;;;;5.15;66.30;102166.13;5046608;28;45486;-81
2022/01/16 11:56:55;;;;;;;;;20.25;16.25;;;;;5.10;66.29;102168.63;5044705;28;45530;-81
2022/01/16 11:59:29;;;;;;;;;20.75;16.75;;;;;5.05;66.59;102174.56;5038802;28;45364;-81
2022/01/16 12:02:02;;;;;;;;;18.25;18.25;;;;;4.97;66.96;102169.09;5042834;28;45281;-80
2022/01/16 12:04:28;;;;;;;;;22.50;17.75;;;;;5.00;66.97;102163.97;5055907;28;45513;-81
2022/01/16 12:07:13;;;;;;;;;21.25;21.00;;;;;5.03;66.97;102150.94;5051694;28;46259;-78
2022/01/16 12:09:46;;;;;;;;;25.75;19.75;;;;;4.94;67.03;102156.78;5041290;28;45448;-80
2022/01/16 12:12:12;;;;;;;;;27.25;21.50;;;;;4.86;67.83;102157.41;5043073;28;45517;-77
2022/01/16 12:15:01;;;;;;;;;20.25;19.00;;;;;4.86;68.13;102167.91;5039067;28;45364;-77